sensor_id;sensor_type;location;lat;lon;timestamp;pressure;altitude;pressure_sealevel;temperature;humidity
20077;BME280;12348;42.710;23.378;2024-02-21T00:00:08;95782.72;;;5.19;100.00
20077;BME280;12348;42.710;23.378;2024-02-21T00:02:36;95777.47;;;5.24;100.00
20077;BME280;12348;42.710;23.378;2024-02-21T00:05:04;95780.59;;;5.21;100.00
20077;BME280;12348;42.710;23.378;2024-02-21T00:07:31;95780.00;;;5.31;100.00
20077;BME280;12348;42.710;23.378;2024-02-21T00:09:57;95777.72;;;5.23;100.00
20077;BME280;12348;42.710;23.378;2024-02-21T00:12:25;95771.78;;;5.21;100.00
20077;BME280;12348;42.710;23.378;2024-02-21T00:14:52;95778.19;;;5.20;100.00
20077;BME280;12348;42.710;23.378;2024-02-21T00:17:18;95775.88;;;5.11;100.00
20077;BME280;12348;42.710;23.378;2024-02-21T00:19:45;95771.53;;;5.05;100.00
20077;BME280;12348;42.710;23.378;2024-02-21T00:22:12;95778.59;;;5.00;100.00
20077;BME280;12348;42.710;23.378;2024-02-21T00:24:40;95772.38;;;4.94;100.00
20077;BME280;12348;42.710;23.378;2024-02-21T00:27:07;95769.13;;;4.92;100.00
20077;BME280;12348;42.710;23.378;2024-02-21T00:29:35;95768.78;;;4.89;100.00
20077;BME280;12348;42.710;23.378;2024-02-21T00:32:02;95768.44;;;4.97;100.00
20077;BME280;12348;42.710;23.378;2024-02-21T00:34:29;95769.91;;;5.04;100.00
20077;BME280;12348;42.710;23.378;2024-02-21T00:36:55;95763.50;;;5.05;100.00
20077;BME280;12348;42.710;23.378;2024-02-21T00:39:22;95768.66;;;4.95;100.00
20077;BME280;12348;42.710;23.378;2024-02-21T00:41:49;95767.84;;;4.95;100.00
20077;BME280;12348;42.710;23.378;2024-02-21T00:44:15;95761.72;;;5.11;100.00
20077;BME280;12348;42.710;23.378;2024-02-21T00:46:44;95766.25;;;5.10;100.00
20077;BME280;12348;42.710;23.378;2024-02-21T00:49:11;95762.66;;;5.17;100.00
20077;BME280;12348;42.710;23.378;2024-02-21T00:51:38;95759.97;;;5.17;100.00
20077;BME280;12348;42.710;23.378;2024-02-21T00:54:05;95759.56;;;5.08;100.00
20077;BME280;12348;42.710;23.378;2024-02-21T00:56:32;95760.94;;;5.10;100.00
20077;BME280;12348;42.710;23.378;2024-02-21T00:58:59;95752.19;;;5.15;100.00
20077;BME280;12348;42.710;23.378;2024-02-21T01:01:25;95752.63;;;5.24;100.00
20077;BME280;12348;42.710;23.378;2024-02-21T01:03:54;95749.97;;;5.24;100.00
20077;BME280;12348;42.710;23.378;2024-02-21T01:06:21;95746.72;;;5.22;100.00
20077;BME280;12348;42.710;23.378;2024-02-21T01:08:48;95749.19;;;5.11;100.00
20077;BME280;12348;42.710;23.378;2024-02-21T01:11:15;95744.50;;;5.02;100.00
20077;BME280;12348;42.710;23.378;2024-02-21T01:13:42;95740.56;;;4.93;100.00
20077;BME280;12348;42.710;23.378;2024-02-21T01:16:09;95735.75;;;4.90;100.00
20077;BME280;12348;42.710;23.378;2024-02-21T01:18:37;95729.56;;;4.89;100.00
20077;BME280;12348;42.710;23.378;2024-02-21T01:21:06;95741.06;;;4.90;100.00
20077;BME280;12348;42.710;23.378;2024-02-21T01:23:33;95727.16;;;4.88;100.00
20077;BME280;12348;42.710;23.378;2024-02-21T01:26:00;95733.09;;;4.78;100.00
20077;BME280;12348;42.710;23.378;2024-02-21T01:28:26;95729.97;;;4.81;100.00
20077;BME280;12348;42.710;23.378;2024-02-21T01:30:53;95727.75;;;4.78;100.00
20077;BME280;12348;42.710;23.378;2024-02-21T01:33:20;95727.53;;;4.79;100.00
20077;BME280;12348;42.710;23.378;2024-02-21T01:35:47;95728.94;;;4.82;100.00
20077;BME280;12348;42.710;23.378;2024-02-21T01:38:16;95718.47;;;4.80;100.00
20077;BME280;12348;42.710;23.378;2024-02-21T01:40:42;95722.53;;;4.83;100.00
20077;BME280;12348;42.710;23.378;2024-02-21T01:43:15;95720.09;;;4.81;100.00
20077;BME280;12348;42.710;23.378;2024-02-21T01:45:43;95715.94;;;4.74;100.00
20077;BME280;12348;42.710;23.378;2024-02-21T01:48:09;95710.25;;;4.82;100.00
20077;BME280;12348;42.710;23.378;2024-02-21T01:50:36;95714.91;;;4.75;100.00
20077;BME280;12348;42.710;23.378;2024-02-21T01:53:03;95707.94;;;4.74;100.00
20077;BME280;12348;42.710;23.378;2024-02-21T01:55:31;95707.28;;;4.67;100.00
20077;BME280;12348;42.710;23.378;2024-02-21T01:57:58;95713.56;;;4.60;100.00
20077;BME280;12348;42.710;23.378;2024-02-21T02:00:25;95713.00;;;4.58;100.00
20077;BME280;12348;42.710;23.378;2024-02-21T02:02:53;95707.31;;;4.55;100.00
20077;BME280;12348;42.710;23.378;2024-02-21T02:05:21;95718.22;;;4.53;100.00
20077;BME280;12348;42.710;23.378;2024-02-21T02:07:48;95719.38;;;4.57;100.00
20077;BME280;12348;42.710;23.378;2024-02-21T02:10:15;95718.91;;;4.60;100.00
20077;BME280;12348;42.710;23.378;2024-02-21T02:12:43;95723.78;;;4.64;100.00
20077;BME280;12348;42.710;23.378;2024-02-21T02:15:10;95716.91;;;4.68;100.00
20077;BME280;12348;42.710;23.378;2024-02-21T02:17:36;95710.88;;;4.72;100.00
20077;BME280;12348;42.710;23.378;2024-02-21T02:20:04;95718.25;;;4.82;100.00
20077;BME280;12348;42.710;23.378;2024-02-21T02:22:31;95710.34;;;4.87;100.00
20077;BME280;12348;42.710;23.378;2024-02-21T02:25:03;95704.88;;;4.94;100.00
20077;BME280;12348;42.710;23.378;2024-02-21T02:27:30;95695.66;;;5.01;100.00
20077;BME280;12348;42.710;23.378;2024-02-21T02:29:57;95695.88;;;5.00;100.00
20077;BME280;12348;42.710;23.378;2024-02-21T02:32:24;95690.06;;;5.03;100.00
20077;BME280;12348;42.710;23.378;2024-02-21T02:34:50;95699.84;;;4.97;100.00
20077;BME280;12348;42.710;23.378;2024-02-21T02:37:17;95686.19;;;4.94;100.00
20077;BME280;12348;42.710;23.378;2024-02-21T02:39:43;95701.28;;;4.88;100.00
20077;BME280;12348;42.710;23.378;2024-02-21T02:42:12;95702.09;;;4.89;100.00
20077;BME280;12348;42.710;23.378;2024-02-21T02:44:39;95689.47;;;4.84;100.00
20077;BME280;12348;42.710;23.378;2024-02-21T02:47:06;95701.19;;;4.83;100.00
20077;BME280;12348;42.710;23.378;2024-02-21T02:49:33;95692.84;;;4.79;100.00
20077;BME280;12348;42.710;23.378;2024-02-21T02:52:00;95704.81;;;4.77;100.00
20077;BME280;12348;42.710;23.378;2024-02-21T02:54:26;95706.19;;;4.79;100.00
20077;BME280;12348;42.710;23.378;2024-02-21T02:56:53;95711.28;;;4.81;100.00
20077;BME280;12348;42.710;23.378;2024-02-21T02:59:21;95694.88;;;4.89;100.00
20077;BME280;12348;42.710;23.378;2024-02-21T03:01:48;95697.84;;;5.04;100.00
20077;BME280;12348;42.710;23.378;2024-02-21T03:04:15;95695.59;;;5.13;100.00
20077;BME280;12348;42.710;23.378;2024-02-21T03:06:41;95701.81;;;5.19;100.00
20077;BME280;12348;42.710;23.378;2024-02-21T03:09:08;95698.44;;;5.23;100.00
20077;BME280;12348;42.710;23.378;2024-02-21T03:11:35;95699.38;;;5.17;100.00
20077;BME280;12348;42.710;23.378;2024-02-21T03:14:03;95705.47;;;5.13;100.00
20077;BME280;12348;42.710;23.378;2024-02-21T03:16:31;95706.50;;;5.11;100.00
20077;BME280;12348;42.710;23.378;2024-02-21T03:18:58;95706.19;;;5.08;100.00
20077;BME280;12348;42.710;23.378;2024-02-21T03:21:25;95711.19;;;5.04;100.00
20077;BME280;12348;42.710;23.378;2024-02-21T03:23:51;95713.63;;;5.06;100.00
20077;BME280;12348;42.710;23.378;2024-02-21T03:26:18;95699.59;;;4.99;100.00
20077;BME280;12348;42.710;23.378;2024-02-21T03:28:45;95715.19;;;4.90;100.00
20077;BME280;12348;42.710;23.378;2024-02-21T03:31:12;95718.59;;;4.85;100.00
20077;BME280;12348;42.710;23.378;2024-02-21T03:33:42;95726.72;;;4.79;100.00
20077;BME280;12348;42.710;23.378;2024-02-21T03:36:13;95721.06;;;4.75;100.00
20077;BME280;12348;42.710;23.378;2024-02-21T03:38:40;95729.53;;;4.72;100.00
20077;BME280;12348;42.710;23.378;2024-02-21T03:41:06;95721.28;;;4.74;100.00
20077;BME280;12348;42.710;23.378;2024-02-21T03:43:33;95728.47;;;4.73;100.00
20077;BME280;12348;42.710;23.378;2024-02-21T03:46:00;95730.72;;;4.65;100.00
20077;BME280;12348;42.710;23.378;2024-02-21T03:48:27;95728.44;;;4.85;100.00
20077;BME280;12348;42.710;23.378;2024-02-21T03:50:55;95736.53;;;4.90;100.00
20077;BME280;12348;42.710;23.378;2024-02-21T03:53:22;95733.00;;;5.01;100.00
20077;BME280;12348;42.710;23.378;2024-02-21T03:55:51;95734.78;;;4.96;100.00
20077;BME280;12348;42.710;23.378;2024-02-21T03:58:19;95724.09;;;4.96;100.00
20077;BME280;12348;42.710;23.378;2024-02-21T04:00:46;95730.25;;;4.96;100.00
20077;BME280;12348;42.710;23.378;2024-02-21T04:03:13;95726.88;;;5.01;100.00
20077;BME280;12348;42.710;23.378;2024-02-21T04:05:41;95727.00;;;4.94;100.00
20077;BME280;12348;42.710;23.378;2024-02-21T04:08:09;95726.22;;;4.94;100.00
20077;BME280;12348;42.710;23.378;2024-02-21T04:10:36;95721.00;;;4.87;100.00
20077;BME280;12348;42.710;23.378;2024-02-21T04:13:04;95722.63;;;4.88;100.00
20077;BME280;12348;42.710;23.378;2024-02-21T04:15:31;95724.97;;;4.84;100.00
20077;BME280;12348;42.710;23.378;2024-02-21T04:17:58;95724.06;;;4.79;100.00
20077;BME280;12348;42.710;23.378;2024-02-21T04:20:25;95723.47;;;4.77;100.00
20077;BME280;12348;42.710;23.378;2024-02-21T04:22:52;95727.19;;;4.76;100.00
20077;BME280;12348;42.710;23.378;2024-02-21T04:25:20;95727.44;;;4.74;100.00
20077;BME280;12348;42.710;23.378;2024-02-21T04:27:47;95723.94;;;4.74;100.00
20077;BME280;12348;42.710;23.378;2024-02-21T04:30:14;95723.22;;;4.90;100.00
20077;BME280;12348;42.710;23.378;2024-02-21T04:32:41;95721.94;;;4.81;100.00
20077;BME280;12348;42.710;23.378;2024-02-21T04:35:08;95725.44;;;4.81;100.00
20077;BME280;12348;42.710;23.378;2024-02-21T04:37:34;95724.19;;;4.72;100.00
20077;BME280;12348;42.710;23.378;2024-02-21T04:40:01;95726.28;;;4.70;100.00
20077;BME280;12348;42.710;23.378;2024-02-21T04:42:29;95727.34;;;4.69;100.00
20077;BME280;12348;42.710;23.378;2024-02-21T04:44:56;95727.13;;;4.71;100.00
20077;BME280;12348;42.710;23.378;2024-02-21T04:47:22;95730.25;;;4.68;100.00
20077;BME280;12348;42.710;23.378;2024-02-21T04:49:50;95732.00;;;4.91;100.00
20077;BME280;12348;42.710;23.378;2024-02-21T04:52:17;95729.97;;;5.09;100.00
20077;BME280;12348;42.710;23.378;2024-02-21T04:54:44;95734.22;;;5.10;100.00
20077;BME280;12348;42.710;23.378;2024-02-21T04:57:10;95738.50;;;4.95;100.00
20077;BME280;12348;42.710;23.378;2024-02-21T04:59:43;95734.09;;;4.89;100.00
20077;BME280;12348;42.710;23.378;2024-02-21T05:02:10;95740.09;;;4.96;100.00
20077;BME280;12348;42.710;23.378;2024-02-21T05:04:36;95746.06;;;4.86;100.00
20077;BME280;12348;42.710;23.378;2024-02-21T05:07:04;95741.22;;;4.83;100.00
20077;BME280;12348;42.710;23.378;2024-02-21T05:09:31;95734.75;;;4.79;100.00
20077;BME280;12348;42.710;23.378;2024-02-21T05:11:57;95740.19;;;4.72;100.00
20077;BME280;12348;42.710;23.378;2024-02-21T05:14:25;95743.81;;;4.66;100.00
20077;BME280;12348;42.710;23.378;2024-02-21T05:16:54;95737.59;;;4.60;100.00
20077;BME280;12348;42.710;23.378;2024-02-21T05:19:21;95745.25;;;4.57;100.00
20077;BME280;12348;42.710;23.378;2024-02-21T05:21:47;95753.59;;;4.60;100.00
20077;BME280;12348;42.710;23.378;2024-02-21T05:24:14;95749.31;;;4.48;100.00
20077;BME280;12348;42.710;23.378;2024-02-21T05:26:41;95748.41;;;4.42;100.00
20077;BME280;12348;42.710;23.378;2024-02-21T05:29:06;95753.75;;;4.30;100.00
20077;BME280;12348;42.710;23.378;2024-02-21T05:31:56;95748.81;;;4.22;100.00
20077;BME280;12348;42.710;23.378;2024-02-21T05:34:24;95749.47;;;4.18;100.00
20077;BME280;12348;42.710;23.378;2024-02-21T05:36:51;95755.06;;;4.16;100.00
20077;BME280;12348;42.710;23.378;2024-02-21T05:39:19;95747.53;;;4.13;100.00
20077;BME280;12348;42.710;23.378;2024-02-21T05:41:48;95751.53;;;4.39;100.00
20077;BME280;12348;42.710;23.378;2024-02-21T05:44:15;95746.28;;;4.56;100.00
20077;BME280;12348;42.710;23.378;2024-02-21T05:46:42;95742.03;;;4.43;100.00
20077;BME280;12348;42.710;23.378;2024-02-21T05:49:10;95745.44;;;4.27;100.00
20077;BME280;12348;42.710;23.378;2024-02-21T05:51:37;95750.28;;;4.30;100.00
20077;BME280;12348;42.710;23.378;2024-02-21T05:54:03;95755.00;;;4.40;100.00
20077;BME280;12348;42.710;23.378;2024-02-21T05:56:30;95757.66;;;4.51;100.00
20077;BME280;12348;42.710;23.378;2024-02-21T05:58:58;95769.59;;;4.60;100.00
20077;BME280;12348;42.710;23.378;2024-02-21T06:01:25;95764.22;;;4.72;100.00
20077;BME280;12348;42.710;23.378;2024-02-21T06:03:53;95760.44;;;4.85;100.00
20077;BME280;12348;42.710;23.378;2024-02-21T06:06:21;95766.66;;;5.31;100.00
20077;BME280;12348;42.710;23.378;2024-02-21T06:08:48;95759.16;;;5.62;100.00
20077;BME280;12348;42.710;23.378;2024-02-21T06:11:15;95765.66;;;6.60;100.00
20077;BME280;12348;42.710;23.378;2024-02-21T06:13:41;95769.91;;;6.78;100.00
20077;BME280;12348;42.710;23.378;2024-02-21T06:16:08;95775.44;;;7.74;100.00
20077;BME280;12348;42.710;23.378;2024-02-21T06:18:36;95775.72;;;9.05;100.00
20077;BME280;12348;42.710;23.378;2024-02-21T06:21:03;95772.88;;;10.34;100.00
20077;BME280;12348;42.710;23.378;2024-02-21T06:23:32;95773.03;;;11.44;100.00
20077;BME280;12348;42.710;23.378;2024-02-21T06:25:58;95774.75;;;12.08;87.11
20077;BME280;12348;42.710;23.378;2024-02-21T06:28:25;95781.00;;;12.03;80.61
20077;BME280;12348;42.710;23.378;2024-02-21T06:30:52;95784.47;;;13.15;75.48
20077;BME280;12348;42.710;23.378;2024-02-21T06:33:19;95789.78;;;14.01;68.28
20077;BME280;12348;42.710;23.378;2024-02-21T06:35:50;95792.66;;;13.91;65.72
20077;BME280;12348;42.710;23.378;2024-02-21T06:38:18;95792.56;;;13.15;67.07
20077;BME280;12348;42.710;23.378;2024-02-21T06:40:46;95791.63;;;12.24;73.65
20077;BME280;12348;42.710;23.378;2024-02-21T06:43:18;95803.84;;;11.77;77.34
20077;BME280;12348;42.710;23.378;2024-02-21T06:45:45;95798.00;;;12.04;75.96
20077;BME280;12348;42.710;23.378;2024-02-21T06:48:16;95795.28;;;13.58;69.66
20077;BME280;12348;42.710;23.378;2024-02-21T06:50:45;95800.34;;;14.68;62.38
20077;BME280;12348;42.710;23.378;2024-02-21T06:53:12;95806.09;;;13.96;61.75
20077;BME280;12348;42.710;23.378;2024-02-21T06:55:39;95813.13;;;13.59;62.05
20077;BME280;12348;42.710;23.378;2024-02-21T06:58:06;95802.09;;;12.30;69.06
20077;BME280;12348;42.710;23.378;2024-02-21T07:00:37;95810.09;;;11.67;74.83
20077;BME280;12348;42.710;23.378;2024-02-21T07:03:04;95812.88;;;11.52;76.18
20077;BME280;12348;42.710;23.378;2024-02-21T07:05:31;95814.06;;;11.35;78.32
20077;BME280;12348;42.710;23.378;2024-02-21T07:07:57;95812.75;;;11.28;80.72
20077;BME280;12348;42.710;23.378;2024-02-21T07:10:24;95813.22;;;10.60;85.17
20077;BME280;12348;42.710;23.378;2024-02-21T07:12:51;95807.97;;;11.09;83.66
20077;BME280;12348;42.710;23.378;2024-02-21T07:15:19;95812.91;;;10.72;82.98
20077;BME280;12348;42.710;23.378;2024-02-21T07:17:46;95810.03;;;10.42;85.09
20077;BME280;12348;42.710;23.378;2024-02-21T07:20:13;95805.69;;;10.01;88.07
20077;BME280;12348;42.710;23.378;2024-02-21T07:22:40;95801.69;;;10.08;88.75
20077;BME280;12348;42.710;23.378;2024-02-21T07:25:08;95808.13;;;10.02;90.93
20077;BME280;12348;42.710;23.378;2024-02-21T07:27:35;95813.22;;;9.88;89.85
20077;BME280;12348;42.710;23.378;2024-02-21T07:30:03;95818.03;;;9.56;91.66
20077;BME280;12348;42.710;23.378;2024-02-21T07:32:32;95818.06;;;9.71;91.66
20077;BME280;12348;42.710;23.378;2024-02-21T07:34:59;95812.16;;;9.84;90.64
20077;BME280;12348;42.710;23.378;2024-02-21T07:37:29;95820.75;;;9.96;90.85
20077;BME280;12348;42.710;23.378;2024-02-21T07:39:56;95813.00;;;10.26;89.16
20077;BME280;12348;42.710;23.378;2024-02-21T07:42:22;95814.34;;;10.38;87.07
20077;BME280;12348;42.710;23.378;2024-02-21T07:44:49;95814.88;;;10.40;87.00
20077;BME280;12348;42.710;23.378;2024-02-21T07:47:16;95810.53;;;10.19;89.27
20077;BME280;12348;42.710;23.378;2024-02-21T07:49:45;95814.34;;;9.98;89.02
20077;BME280;12348;42.710;23.378;2024-02-21T07:52:14;95802.50;;;10.09;89.90
20077;BME280;12348;42.710;23.378;2024-02-21T07:54:41;95810.81;;;10.23;88.84
20077;BME280;12348;42.710;23.378;2024-02-21T07:57:07;95802.22;;;10.46;88.35
20077;BME280;12348;42.710;23.378;2024-02-21T07:59:34;95804.38;;;10.44;87.71
20077;BME280;12348;42.710;23.378;2024-02-21T08:02:01;95793.59;;;10.54;86.86
20077;BME280;12348;42.710;23.378;2024-02-21T08:04:28;95801.69;;;10.39;87.45
20077;BME280;12348;42.710;23.378;2024-02-21T08:06:56;95797.78;;;10.96;85.55
20077;BME280;12348;42.710;23.378;2024-02-21T08:09:27;95796.13;;;11.60;81.28
20077;BME280;12348;42.710;23.378;2024-02-21T08:11:54;95804.03;;;12.25;75.80
20077;BME280;12348;42.710;23.378;2024-02-21T08:14:21;95804.97;;;12.39;75.12
20077;BME280;12348;42.710;23.378;2024-02-21T08:16:48;95800.38;;;12.40;74.56
20077;BME280;12348;42.710;23.378;2024-02-21T08:19:14;95801.13;;;12.21;74.05
20077;BME280;12348;42.710;23.378;2024-02-21T08:21:41;95805.56;;;12.02;74.93
20077;BME280;12348;42.710;23.378;2024-02-21T08:24:09;95808.47;;;12.69;73.37
20077;BME280;12348;42.710;23.378;2024-02-21T08:26:40;95810.09;;;13.18;69.78
20077;BME280;12348;42.710;23.378;2024-02-21T08:29:06;95808.44;;;12.98;70.73
20077;BME280;12348;42.710;23.378;2024-02-21T08:31:33;95809.00;;;13.24;68.78
20077;BME280;12348;42.710;23.378;2024-02-21T08:34:00;95801.59;;;13.05;70.12
20077;BME280;12348;42.710;23.378;2024-02-21T08:36:29;95801.06;;;12.55;70.37
20077;BME280;12348;42.710;23.378;2024-02-21T08:38:56;95803.84;;;12.74;69.29
20077;BME280;12348;42.710;23.378;2024-02-21T08:41:26;95803.72;;;12.84;69.06
20077;BME280;12348;42.710;23.378;2024-02-21T08:43:53;95807.13;;;13.62;65.23
20077;BME280;12348;42.710;23.378;2024-02-21T08:46:20;95801.88;;;13.90;64.57
20077;BME280;12348;42.710;23.378;2024-02-21T08:49:18;95805.09;;;13.73;63.15
20077;BME280;12348;42.710;23.378;2024-02-21T08:51:46;95808.66;;;13.30;64.09
20077;BME280;12348;42.710;23.378;2024-02-21T08:54:14;95816.22;;;13.52;63.39
20077;BME280;12348;42.710;23.378;2024-02-21T08:56:42;95804.38;;;13.00;63.76
20077;BME280;12348;42.710;23.378;2024-02-21T08:59:09;95803.06;;;12.45;66.58
20077;BME280;12348;42.710;23.378;2024-02-21T09:01:35;95798.19;;;12.12;68.56
20077;BME280;12348;42.710;23.378;2024-02-21T09:04:03;95801.09;;;11.82;70.87
20077;BME280;12348;42.710;23.378;2024-02-21T09:06:30;95807.69;;;11.60;72.34
20077;BME280;12348;42.710;23.378;2024-02-21T09:08:58;95800.91;;;11.73;72.09
20077;BME280;12348;42.710;23.378;2024-02-21T09:11:25;95800.16;;;11.57;72.47
20077;BME280;12348;42.710;23.378;2024-02-21T09:13:54;95796.38;;;11.14;73.74
20077;BME280;12348;42.710;23.378;2024-02-21T09:16:21;95805.94;;;10.60;76.12
20077;BME280;12348;42.710;23.378;2024-02-21T09:18:48;95800.75;;;10.95;76.35
20077;BME280;12348;42.710;23.378;2024-02-21T09:21:14;95797.88;;;10.65;77.70
20077;BME280;12348;42.710;23.378;2024-02-21T09:23:41;95801.09;;;10.67;76.73
20077;BME280;12348;42.710;23.378;2024-02-21T09:26:08;95801.91;;;10.53;77.78
20077;BME280;12348;42.710;23.378;2024-02-21T09:28:39;95792.66;;;10.95;76.03
20077;BME280;12348;42.710;23.378;2024-02-21T09:31:07;95792.97;;;10.83;75.63
20077;BME280;12348;42.710;23.378;2024-02-21T09:33:33;95794.28;;;10.96;73.82
20077;BME280;12348;42.710;23.378;2024-02-21T09:36:01;95797.44;;;11.08;73.10
20077;BME280;12348;42.710;23.378;2024-02-21T09:38:27;95804.91;;;10.51;77.00
20077;BME280;12348;42.710;23.378;2024-02-21T09:40:59;95801.88;;;10.83;75.33
20077;BME280;12348;42.710;23.378;2024-02-21T09:43:26;95799.28;;;11.23;74.08
20077;BME280;12348;42.710;23.378;2024-02-21T09:45:55;95796.81;;;11.31;72.41
20077;BME280;12348;42.710;23.378;2024-02-21T09:48:36;95802.91;;;11.52;70.34
20077;BME280;12348;42.710;23.378;2024-02-21T09:51:07;95804.06;;;11.85;66.91
20077;BME280;12348;42.710;23.378;2024-02-21T09:53:37;95799.25;;;11.77;65.17
20077;BME280;12348;42.710;23.378;2024-02-21T09:56:05;95806.81;;;11.75;66.27
20077;BME280;12348;42.710;23.378;2024-02-21T09:58:34;95802.09;;;12.30;63.42
20077;BME280;12348;42.710;23.378;2024-02-21T10:01:00;95797.97;;;12.38;60.84
20077;BME280;12348;42.710;23.378;2024-02-21T10:03:30;95795.75;;;12.16;61.41
20077;BME280;12348;42.710;23.378;2024-02-21T10:05:58;95783.13;;;12.41;62.28
20077;BME280;12348;42.710;23.378;2024-02-21T10:08:26;95783.13;;;12.35;61.89
20077;BME280;12348;42.710;23.378;2024-02-21T10:10:54;95793.19;;;12.30;62.80
20077;BME280;12348;42.710;23.378;2024-02-21T10:13:25;95789.13;;;12.32;61.38
20077;BME280;12348;42.710;23.378;2024-02-21T10:16:03;95786.47;;;12.56;59.48
20077;BME280;12348;42.710;23.378;2024-02-21T10:18:31;95781.13;;;12.51;60.21
20077;BME280;12348;42.710;23.378;2024-02-21T10:21:02;95779.72;;;12.54;60.61
20077;BME280;12348;42.710;23.378;2024-02-21T10:23:28;95775.66;;;12.80;60.17
20077;BME280;12348;42.710;23.378;2024-02-21T10:26:04;95770.22;;;12.85;59.96
20077;BME280;12348;42.710;23.378;2024-02-21T10:28:31;95771.00;;;13.10;59.26
20077;BME280;12348;42.710;23.378;2024-02-21T10:30:58;95761.66;;;13.45;57.56
20077;BME280;12348;42.710;23.378;2024-02-21T10:33:25;95756.72;;;13.66;56.95
20077;BME280;12348;42.710;23.378;2024-02-21T10:35:54;95749.84;;;14.25;56.24
20077;BME280;12348;42.710;23.378;2024-02-21T10:38:21;95738.38;;;14.15;55.80
20077;BME280;12348;42.710;23.378;2024-02-21T10:40:49;95736.44;;;14.48;56.56
20077;BME280;12348;42.710;23.378;2024-02-21T10:43:19;95730.19;;;14.94;54.46
20077;BME280;12348;42.710;23.378;2024-02-21T10:45:47;95728.78;;;14.83;53.38
20077;BME280;12348;42.710;23.378;2024-02-21T10:48:24;95717.50;;;15.03;53.59
20077;BME280;12348;42.710;23.378;2024-02-21T10:51:03;95711.53;;;15.65;51.36
20077;BME280;12348;42.710;23.378;2024-02-21T10:53:35;95697.63;;;17.13;48.30
20077;BME280;12348;42.710;23.378;2024-02-21T10:56:12;95696.44;;;17.80;44.83
20077;BME280;12348;42.710;23.378;2024-02-21T10:58:42;95695.88;;;17.17;46.33
20077;BME280;12348;42.710;23.378;2024-02-21T11:01:10;95691.75;;;17.72;44.96
20077;BME280;12348;42.710;23.378;2024-02-21T11:03:38;95680.53;;;18.64;41.83
20077;BME280;12348;42.710;23.378;2024-02-21T11:06:09;95684.69;;;17.62;43.69
20077;BME280;12348;42.710;23.378;2024-02-21T11:08:37;95684.88;;;17.92;43.42
20077;BME280;12348;42.710;23.378;2024-02-21T11:11:04;95677.53;;;17.92;43.21
20077;BME280;12348;42.710;23.378;2024-02-21T11:13:31;95669.63;;;18.00;42.47
20077;BME280;12348;42.710;23.378;2024-02-21T11:16:09;95675.50;;;18.83;41.72
20077;BME280;12348;42.710;23.378;2024-02-21T11:18:36;95666.59;;;19.88;40.45
20077;BME280;12348;42.710;23.378;2024-02-21T11:21:03;95667.13;;;20.02;38.78
20077;BME280;12348;42.710;23.378;2024-02-21T11:23:32;95661.78;;;19.22;39.33
20077;BME280;12348;42.710;23.378;2024-02-21T11:26:06;95657.31;;;17.85;41.72
20077;BME280;12348;42.710;23.378;2024-02-21T11:28:33;95669.97;;;17.72;40.28
20077;BME280;12348;42.710;23.378;2024-02-21T11:31:07;95661.97;;;17.76;39.48
20077;BME280;12348;42.710;23.378;2024-02-21T11:33:34;95658.25;;;18.06;39.75
20077;BME280;12348;42.710;23.378;2024-02-21T11:36:00;95662.06;;;18.14;39.16
20077;BME280;12348;42.710;23.378;2024-02-21T11:38:29;95655.34;;;16.99;40.96
20077;BME280;12348;42.710;23.378;2024-02-21T11:40:57;95659.25;;;16.35;42.32
20077;BME280;12348;42.710;23.378;2024-02-21T11:43:24;95650.16;;;14.55;45.72
20077;BME280;12348;42.710;23.378;2024-02-21T11:45:58;95648.13;;;14.19;46.98
20077;BME280;12348;42.710;23.378;2024-02-21T11:48:25;95643.81;;;14.32;47.50
20077;BME280;12348;42.710;23.378;2024-02-21T11:50:54;95639.06;;;14.10;48.56
20077;BME280;12348;42.710;23.378;2024-02-21T11:53:21;95646.34;;;13.30;50.19
20077;BME280;12348;42.710;23.378;2024-02-21T11:55:48;95626.09;;;13.28;50.94
20077;BME280;12348;42.710;23.378;2024-02-21T11:58:16;95643.84;;;12.96;51.50
20077;BME280;12348;42.710;23.378;2024-02-21T12:00:43;95640.69;;;12.70;52.20
20077;BME280;12348;42.710;23.378;2024-02-21T12:03:09;95625.38;;;12.18;53.77
20077;BME280;12348;42.710;23.378;2024-02-21T12:05:36;95642.28;;;11.70;55.65
20077;BME280;12348;42.710;23.378;2024-02-21T12:08:04;95641.66;;;11.78;56.39
20077;BME280;12348;42.710;23.378;2024-02-21T12:10:31;95644.44;;;11.68;56.54
20077;BME280;12348;42.710;23.378;2024-02-21T12:13:05;95642.56;;;11.39;57.07
20077;BME280;12348;42.710;23.378;2024-02-21T12:15:34;95635.94;;;11.56;57.49
20077;BME280;12348;42.710;23.378;2024-02-21T12:18:01;95637.09;;;11.45;57.44
20077;BME280;12348;42.710;23.378;2024-02-21T12:20:28;95627.16;;;11.40;57.10
20077;BME280;12348;42.710;23.378;2024-02-21T12:22:54;95626.41;;;11.34;57.02
20077;BME280;12348;42.710;23.378;2024-02-21T12:25:22;95624.41;;;11.50;57.20
20077;BME280;12348;42.710;23.378;2024-02-21T12:27:52;95621.66;;;11.21;57.77
20077;BME280;12348;42.710;23.378;2024-02-21T12:30:19;95624.34;;;11.21;57.83
20077;BME280;12348;42.710;23.378;2024-02-21T12:32:47;95618.16;;;11.21;58.34
20077;BME280;12348;42.710;23.378;2024-02-21T12:35:14;95617.34;;;11.20;58.35
20077;BME280;12348;42.710;23.378;2024-02-21T12:37:42;95611.72;;;11.16;58.63
20077;BME280;12348;42.710;23.378;2024-02-21T12:40:10;95617.78;;;11.32;58.44
20077;BME280;12348;42.710;23.378;2024-02-21T12:42:38;95610.81;;;11.26;58.32
20077;BME280;12348;42.710;23.378;2024-02-21T12:45:06;95607.03;;;11.27;58.78
20077;BME280;12348;42.710;23.378;2024-02-21T12:47:33;95613.88;;;11.14;61.33
20077;BME280;12348;42.710;23.378;2024-02-21T12:50:01;95608.34;;;10.96;66.02
20077;BME280;12348;42.710;23.378;2024-02-21T12:52:29;95607.13;;;11.17;66.74